Jersey — WDF7218 — position and weather

sailwx.info

Track history (hours):
 
Tides and Currents Weather Stations Pressure Air Temp Water Temp Dewpoint Dewpoint Depression Visibility Wind Speed Wind Dir Waves Ship Positions

Jersey

Owner: BillyBey Ferry Company, Weehawken, NJ. More information available from US FCC via Universal Licensing System and Coast Guard Vessel Documentation Center.

Last reported at 2018-Jun-16 00:18 UTC. Time now 2018-Jun-18 01:32 UTC.
Position N 40°44' W 074°02'.

Length 22 m; draft 2 m.

Type: Passenger vessel. MMSI: 367482250.

Date/timePositionNaut miles runAvg speedWind from/ knotsBaromVisibWave heightAir tempDewpointWater temp
2018-Jun-16 00:18N 40°44' W 074°02'2 5.0
2018-Jun-15 23:50N 40°46' W 074°01'410.7
2018-Jun-15 23:30N 40°43' W 074°02'0 0.3
2018-Jun-15 22:57N 40°43' W 074°02'0 0.0
2018-Jun-15 22:30N 40°43' W 074°02'0 0.1
2018-Jun-15 22:00N 40°43' W 074°02'0 0.1
2018-Jun-15 21:30N 40°43' W 074°02'0 0.1
2018-Jun-15 21:00N 40°43' W 074°02'0 0.1
2018-Jun-15 20:30N 40°43' W 074°02'0 0.3
2018-Jun-15 20:00N 40°43' W 074°02'0 0.3
2018-Jun-15 19:30N 40°43' W 074°02'0 0.2
2018-Jun-15 19:00N 40°43' W 074°02'0 0.2
2018-Jun-15 18:30N 40°43' W 074°02'0 0.1
2018-Jun-15 18:00N 40°43' W 074°02'0 0.1
2018-Jun-15 17:30N 40°43' W 074°02'0 0.1
2018-Jun-15 17:00N 40°43' W 074°02'0 0.1
2018-Jun-15 16:30N 40°43' W 074°02'0 0.0
2018-Jun-15 16:00N 40°43' W 074°02'0 0.0
2018-Jun-15 15:30N 40°43' W 074°02'0 0.0
2018-Jun-15 15:00N 40°43' W 074°02'0 0.1
2018-Jun-15 14:30N 40°43' W 074°02'0 0.1
2018-Jun-15 14:00N 40°43' W 074°02'0 0.0
2018-Jun-15 13:30N 40°43' W 074°02'0 0.1
2018-Jun-15 13:00N 40°43' W 074°02'1 1.2
2018-Jun-15 12:30N 40°43' W 074°01'3 6.8
2018-Jun-15 11:59N 40°46' W 074°01'0 0.0
2018-Jun-15 11:30N 40°46' W 074°01'0 0.0
2018-Jun-14 17:08N 40°46' W 074°01'0 0.3
2018-Jun-14 16:58N 40°46' W 074°01'4 7.7
2018-Jun-14 16:31N 40°43' W 074°02'0 0.1
2018-Jun-14 16:00N 40°43' W 074°02'0 0.1
2018-Jun-14 15:30N 40°43' W 074°02'0 0.1
2018-Jun-14 15:00N 40°43' W 074°02'0 0.0
2018-Jun-14 14:30N 40°43' W 074°02'0 0.0
2018-Jun-14 14:00N 40°43' W 074°02'0 0.2
2018-Jun-14 13:30N 40°43' W 074°02'0 0.2
2018-Jun-14 13:01N 40°43' W 074°02'0 0.0
2018-Jun-14 12:30N 40°43' W 074°02'0 0.2
2018-Jun-14 12:00N 40°43' W 074°02'0 0.1
2018-Jun-14 11:30N 40°43' W 074°02'0 0.0
2018-Jun-14 11:00N 40°43' W 074°02'0 0.0
2018-Jun-14 10:30N 40°43' W 074°02'0 0.1
2018-Jun-14 10:00N 40°43' W 074°02'1 0.2
2018-Jun-14 03:10N 40°44' W 074°02'1 8.1
2018-Jun-14 03:00N 40°43' W 074°01'0 0.8
2018-Jun-14 02:30N 40°43' W 074°02'1 1.0
2018-Jun-14 02:00N 40°43' W 074°01'1 1.1
2018-Jun-14 01:30N 40°43' W 074°02'0 0.9
2018-Jun-14 01:01N 40°43' W 074°01'0 0.9
2018-Jun-14 00:31N 40°43' W 074°02'1 1.1
2018-Jun-14 00:00N 40°43' W 074°01'0 0.2
2018-Jun-13 23:30N 40°43' W 074°01'0 0.2
2018-Jun-13 23:00N 40°43' W 074°01'0 0.0
2018-Jun-13 22:30N 40°43' W 074°01'0 0.0
2018-Jun-13 22:00N 40°43' W 074°01'0 0.2
2018-Jun-13 21:30N 40°43' W 074°01'0 0.1
2018-Jun-13 21:01N 40°43' W 074°01'0 0.1
2018-Jun-13 20:30N 40°43' W 074°01'0 0.0
2018-Jun-13 20:00N 40°43' W 074°01'0 0.1
2018-Jun-13 19:31N 40°43' W 074°01'0 0.0
2018-Jun-13 19:00N 40°43' W 074°01'0 0.0
2018-Jun-13 18:30N 40°43' W 074°01'0 0.1
2018-Jun-13 18:01N 40°43' W 074°01'0 0.0
2018-Jun-13 17:30N 40°43' W 074°01'0 0.0
2018-Jun-13 17:00N 40°43' W 074°01'0 0.0
2018-Jun-13 16:30N 40°43' W 074°01'0 0.0
2018-Jun-13 16:00N 40°43' W 074°01'0 0.0
2018-Jun-13 15:30N 40°43' W 074°01'0 0.0
2018-Jun-13 15:00N 40°43' W 074°01'0 0.0
2018-Jun-13 14:30N 40°43' W 074°01'0 0.0
2018-Jun-13 14:00N 40°43' W 074°01'0 0.0
2018-Jun-13 13:30N 40°43' W 074°01'0 0.0
2018-Jun-13 13:00N 40°43' W 074°01'0 0.0
2018-Jun-13 12:30N 40°43' W 074°01'0 0.0
2018-Jun-13 12:00N 40°43' W 074°01'0 0.0
2018-Jun-13 11:30N 40°43' W 074°01'0 0.0
2018-Jun-13 11:00N 40°43' W 074°01'0 0.0
2018-Jun-13 10:30N 40°43' W 074°01'1 2.6
2018-Jun-13 10:00N 40°44' W 074°02'0 0.0
2018-Jun-13 00:27N 40°44' W 074°02'2 4.8
2018-Jun-12 23:59N 40°46' W 074°01'4 7.5
2018-Jun-12 23:30N 40°43' W 074°02'0 0.3
2018-Jun-12 23:00N 40°43' W 074°02'0 0.0
2018-Jun-12 22:30N 40°43' W 074°02'0 0.1
2018-Jun-12 22:00N 40°43' W 074°02'0 0.1
2018-Jun-12 21:30N 40°43' W 074°02'0 0.1
2018-Jun-12 21:00N 40°43' W 074°02'0 0.1
2018-Jun-12 20:30N 40°43' W 074°02'0 0.1
2018-Jun-12 20:01N 40°43' W 074°02'0 0.1
2018-Jun-12 19:29N 40°43' W 074°02'0 0.0
2018-Jun-12 19:00N 40°43' W 074°02'0 0.0
2018-Jun-12 18:31N 40°43' W 074°02'0 0.1
2018-Jun-12 18:00N 40°43' W 074°02'0 0.1
2018-Jun-12 17:30N 40°43' W 074°02'0 0.2
2018-Jun-12 17:01N 40°43' W 074°02'0 0.2
2018-Jun-12 16:31N 40°43' W 074°02'0 0.1
2018-Jun-12 16:00N 40°43' W 074°02'0 0.2
2018-Jun-12 15:31N 40°43' W 074°02'0 0.1
2018-Jun-12 15:00N 40°43' W 074°02'0 0.1
2018-Jun-12 14:30N 40°43' W 074°02'0 0.0
2018-Jun-12 14:00N 40°43' W 074°02'0 0.0
2018-Jun-12 13:30N 40°43' W 074°02'0 0.0
2018-Jun-12 13:00N 40°43' W 074°02'0 0.1
2018-Jun-12 12:30N 40°43' W 074°02'0 0.0
2018-Jun-12 12:00N 40°43' W 074°02'0 0.1
2018-Jun-12 11:31N 40°43' W 074°02'0 0.1
2018-Jun-12 11:01N 40°43' W 074°02'0 0.0
2018-Jun-12 10:30N 40°43' W 074°02'0 0.1
2018-Jun-12 10:00N 40°43' W 074°02'1 0.2
2018-Jun-12 03:11N 40°44' W 074°02'1 7.2
2018-Jun-12 03:00N 40°43' W 074°01'0 0.8
2018-Jun-12 02:30N 40°43' W 074°02'1 0.9
2018-Jun-12 01:57N 40°43' W 074°01'1 1.4
2018-Jun-12 01:30N 40°43' W 074°02'1 1.1
2018-Jun-12 01:00N 40°43' W 074°01'0 1.0
2018-Jun-12 00:30N 40°43' W 074°02'1 1.1
2018-Jun-12 00:00N 40°43' W 074°01'0 0.0
2018-Jun-11 23:30N 40°43' W 074°01'0 0.0
2018-Jun-11 22:58N 40°43' W 074°01'0 0.1
2018-Jun-11 22:30N 40°43' W 074°01'0 0.0
2018-Jun-11 21:58N 40°43' W 074°01'0 0.0
2018-Jun-11 21:29N 40°43' W 074°01'0 0.0
2018-Jun-11 21:00N 40°43' W 074°01'0 0.0
2018-Jun-11 20:30N 40°43' W 074°01'0 0.0
2018-Jun-11 20:00N 40°43' W 074°01'0 0.0
2018-Jun-11 19:30N 40°43' W 074°01'0 0.0
2018-Jun-11 19:00N 40°43' W 074°01'0 0.0
2018-Jun-11 18:28N 40°43' W 074°01'0 0.0
2018-Jun-11 18:00N 40°43' W 074°01'0 0.0
2018-Jun-11 17:30N 40°43' W 074°01'0 0.0
2018-Jun-11 17:00N 40°43' W 074°01'0 0.0
2018-Jun-11 16:30N 40°43' W 074°01'0 0.1
2018-Jun-11 16:00N 40°43' W 074°01'0 0.1
2018-Jun-11 15:30N 40°43' W 074°01'0 0.0
2018-Jun-11 15:00N 40°43' W 074°01'0 0.0
2018-Jun-11 14:30N 40°43' W 074°01'0 0.0
2018-Jun-11 14:00N 40°43' W 074°01'0 0.0
2018-Jun-11 13:30N 40°43' W 074°01'0 0.0
2018-Jun-11 12:58N 40°43' W 074°01'0 0.0
2018-Jun-11 12:30N 40°43' W 074°01'0 0.0
2018-Jun-11 11:59N 40°43' W 074°01'0 0.0
2018-Jun-11 11:30N 40°43' W 074°01'0 0.0
2018-Jun-11 11:00N 40°43' W 074°01'0 0.0
2018-Jun-11 10:30N 40°43' W 074°01'1 2.6
2018-Jun-11 10:00N 40°44' W 074°02'0 0.0
2018-Jun-09 19:08N 40°44' W 074°02'0 0.0
2018-Jun-09 00:26N 40°44' W 074°02'2 3.6
2018-Jun-08 23:48N 40°46' W 074°01'4 9.8
2018-Jun-08 23:27N 40°43' W 074°02'0 0.1
2018-Jun-08 23:00N 40°43' W 074°02'0 0.2
2018-Jun-08 22:30N 40°43' W 074°02'0 0.2
2018-Jun-08 22:00N 40°43' W 074°02'0 0.1
2018-Jun-08 21:30N 40°43' W 074°02'0 0.1
2018-Jun-08 21:00N 40°43' W 074°02'0 0.0
2018-Jun-08 20:30N 40°43' W 074°02'0 0.1
2018-Jun-08 20:00N 40°43' W 074°02'0 0.1
2018-Jun-08 19:30N 40°43' W 074°02'0 0.1
2018-Jun-08 19:00N 40°43' W 074°02'0 0.1
2018-Jun-08 18:30N 40°43' W 074°02'0 0.0
2018-Jun-08 18:01N 40°43' W 074°02'0 0.1
2018-Jun-08 17:30N 40°43' W 074°02'0 0.1
2018-Jun-08 17:00N 40°43' W 074°02'0 0.1
2018-Jun-08 16:30N 40°43' W 074°02'0 0.0
2018-Jun-08 16:00N 40°43' W 074°02'0 0.0
2018-Jun-08 15:30N 40°43' W 074°02'0 0.2
2018-Jun-08 15:01N 40°43' W 074°02'0 0.1
2018-Jun-08 14:30N 40°43' W 074°02'0 0.0
2018-Jun-08 14:00N 40°43' W 074°02'0 0.0
2018-Jun-08 13:30N 40°43' W 074°02'0 0.2
2018-Jun-08 13:00N 40°43' W 074°02'0 0.2
2018-Jun-08 12:30N 40°43' W 074°02'0 0.1
2018-Jun-08 12:00N 40°43' W 074°02'0 0.2
2018-Jun-08 11:30N 40°43' W 074°02'0 0.2
2018-Jun-08 11:00N 40°43' W 074°02'0 0.1
2018-Jun-08 10:30N 40°43' W 074°02'0 0.2
2018-Jun-08 10:01N 40°43' W 074°02'1 0.2
2018-Jun-08 03:13N 40°44' W 074°02'1 6.1
2018-Jun-08 03:00N 40°43' W 074°01'1 1.1
2018-Jun-08 02:30N 40°43' W 074°02'1 1.2
2018-Jun-08 02:01N 40°43' W 074°01'1 1.3
2018-Jun-08 01:31N 40°43' W 074°02'1 1.2
2018-Jun-08 01:00N 40°43' W 074°01'1 1.1
2018-Jun-08 00:30N 40°43' W 074°02'1 1.1
2018-Jun-08 00:00N 40°43' W 074°01'0 0.1
2018-Jun-07 23:30N 40°43' W 074°01'0 0.0
2018-Jun-07 23:00N 40°43' W 074°01'0 0.1
2018-Jun-07 22:30N 40°43' W 074°01'0 0.0
2018-Jun-07 21:57N 40°43' W 074°01'0 0.1
2018-Jun-07 21:30N 40°43' W 074°01'0 0.0
2018-Jun-07 21:00N 40°43' W 074°01'0 0.0
2018-Jun-07 20:30N 40°43' W 074°01'0 0.0
2018-Jun-07 20:00N 40°43' W 074°01'0 0.0
2018-Jun-07 19:30N 40°43' W 074°01'0 0.0
2018-Jun-07 19:00N 40°43' W 074°01'0 0.1
2018-Jun-07 18:31N 40°43' W 074°01'0 0.0
2018-Jun-07 18:00N 40°43' W 074°01'0 0.0
2018-Jun-07 17:30N 40°43' W 074°01'0 0.0
2018-Jun-07 17:00N 40°43' W 074°01'0 0.0
2018-Jun-07 16:30N 40°43' W 074°01'0 0.0
2018-Jun-07 16:00N 40°43' W 074°01'0 0.0
2018-Jun-07 15:30N 40°43' W 074°01'0 0.0
2018-Jun-07 15:00N 40°43' W 074°01'0 0.0
2018-Jun-07 14:30N 40°43' W 074°01'0 0.0
2018-Jun-07 14:01N 40°43' W 074°01'0 0.0
2018-Jun-07 13:30N 40°43' W 074°01'0 0.0
2018-Jun-07 13:00N 40°43' W 074°01'0 0.0
2018-Jun-07 12:31N 40°43' W 074°01'0 0.0
2018-Jun-07 12:00N 40°43' W 074°01'0 0.0
2018-Jun-07 11:31N 40°43' W 074°01'0 0.0
2018-Jun-07 11:01N 40°43' W 074°01'0 0.0
2018-Jun-07 10:30N 40°43' W 074°01'1 2.6
2018-Jun-07 10:00N 40°44' W 074°02'0 0.0
2018-Jun-07 00:31N 40°44' W 074°02'0 8.0
2018-Jun-07 00:30N 40°44' W 074°01'1 0.9
2018-Jun-06 23:43N 40°45' W 074°01'2 9.6
2018-Jun-06 23:30N 40°43' W 074°02'0 0.0
2018-Jun-06 23:00N 40°43' W 074°02'0 0.0
2018-Jun-06 22:30N 40°43' W 074°02'0 0.0
2018-Jun-06 22:00N 40°43' W 074°02'0 0.0
2018-Jun-06 21:30N 40°43' W 074°02'0 0.1
2018-Jun-06 21:01N 40°43' W 074°02'0 0.1
2018-Jun-06 20:30N 40°43' W 074°02'0 0.1
2018-Jun-06 20:00N 40°43' W 074°02'0 0.1
2018-Jun-06 19:30N 40°43' W 074°02'0 0.1
2018-Jun-06 19:00N 40°43' W 074°02'0 0.1
2018-Jun-06 18:30N 40°43' W 074°02'0 0.0
2018-Jun-06 18:00N 40°43' W 074°02'0 0.1
2018-Jun-06 17:30N 40°43' W 074°02'0 0.0
2018-Jun-06 17:00N 40°43' W 074°02'0 0.0
2018-Jun-06 16:30N 40°43' W 074°02'0 0.1
2018-Jun-06 16:00N 40°43' W 074°02'0 0.1
2018-Jun-06 15:30N 40°43' W 074°02'0 0.3
2018-Jun-06 15:00N 40°43' W 074°02'0 0.2
2018-Jun-06 14:31N 40°43' W 074°02'0 0.1
2018-Jun-06 14:01N 40°43' W 074°02'0 0.1
2018-Jun-06 13:30N 40°43' W 074°02'0 0.1
2018-Jun-06 13:00N 40°43' W 074°02'0 0.0
2018-Jun-06 12:30N 40°43' W 074°02'0 0.0
2018-Jun-06 12:00N 40°43' W 074°02'0 0.1
2018-Jun-06 11:30N 40°43' W 074°02'0 0.3
2018-Jun-06 11:00N 40°43' W 074°02'0 0.3
2018-Jun-06 10:30N 40°43' W 074°02'0 0.1
2018-Jun-06 10:00N 40°43' W 074°02'1 0.2
2018-Jun-06 03:11N 40°44' W 074°02'1 7.2
2018-Jun-06 03:00N 40°43' W 074°01'1 1.1
2018-Jun-06 02:31N 40°43' W 074°02'1 1.0
2018-Jun-06 02:01N 40°43' W 074°01'1 1.2
2018-Jun-06 01:30N 40°43' W 074°02'1 1.3
2018-Jun-06 01:01N 40°43' W 074°01'1 1.3
2018-Jun-06 00:30N 40°43' W 074°02'  
Track history (hours):
 
Tides and Currents Weather Stations Pressure Air Temp Water Temp Dewpoint Dewpoint Depression Visibility Wind Speed Wind Dir Waves Ship Positions

Jersey

Owner: BillyBey Ferry Company, Weehawken, NJ. More information available from US FCC via Universal Licensing System and Coast Guard Vessel Documentation Center.

Last reported at 2018-Jun-16 00:18 UTC. Time now 2018-Jun-18 01:32 UTC.
Position N 40°44' W 074°02'.

Length 22 m; draft 2 m.

Type: Passenger vessel. MMSI: 367482250.

Date/timePositionNaut miles runAvg speedWind from/ knotsBaromVisibWave heightAir tempDewpointWater temp
2018-Jun-16 00:18N 40°44' W 074°02'2 5.0
2018-Jun-15 23:50N 40°46' W 074°01'410.7
2018-Jun-15 23:30N 40°43' W 074°02'0 0.3
2018-Jun-15 22:57N 40°43' W 074°02'0 0.0
2018-Jun-15 22:30N 40°43' W 074°02'0 0.1
2018-Jun-15 22:00N 40°43' W 074°02'0 0.1
2018-Jun-15 21:30N 40°43' W 074°02'0 0.1
2018-Jun-15 21:00N 40°43' W 074°02'0 0.1
2018-Jun-15 20:30N 40°43' W 074°02'0 0.3
2018-Jun-15 20:00N 40°43' W 074°02'0 0.3
2018-Jun-15 19:30N 40°43' W 074°02'0 0.2
2018-Jun-15 19:00N 40°43' W 074°02'0 0.2
2018-Jun-15 18:30N 40°43' W 074°02'0 0.1
2018-Jun-15 18:00N 40°43' W 074°02'0 0.1
2018-Jun-15 17:30N 40°43' W 074°02'0 0.1
2018-Jun-15 17:00N 40°43' W 074°02'0 0.1
2018-Jun-15 16:30N 40°43' W 074°02'0 0.0
2018-Jun-15 16:00N 40°43' W 074°02'0 0.0
2018-Jun-15 15:30N 40°43' W 074°02'0 0.0
2018-Jun-15 15:00N 40°43' W 074°02'0 0.1
2018-Jun-15 14:30N 40°43' W 074°02'0 0.1
2018-Jun-15 14:00N 40°43' W 074°02'0 0.0
2018-Jun-15 13:30N 40°43' W 074°02'0 0.1
2018-Jun-15 13:00N 40°43' W 074°02'1 1.2
2018-Jun-15 12:30N 40°43' W 074°01'3 6.8
2018-Jun-15 11:59N 40°46' W 074°01'0 0.0
2018-Jun-15 11:30N 40°46' W 074°01'0 0.0
2018-Jun-14 17:08N 40°46' W 074°01'0 0.3
2018-Jun-14 16:58N 40°46' W 074°01'4 7.7
2018-Jun-14 16:31N 40°43' W 074°02'0 0.1
2018-Jun-14 16:00N 40°43' W 074°02'0 0.1
2018-Jun-14 15:30N 40°43' W 074°02'0 0.1
2018-Jun-14 15:00N 40°43' W 074°02'0 0.0
2018-Jun-14 14:30N 40°43' W 074°02'0 0.0
2018-Jun-14 14:00N 40°43' W 074°02'0 0.2
2018-Jun-14 13:30N 40°43' W 074°02'0 0.2
2018-Jun-14 13:01N 40°43' W 074°02'0 0.0
2018-Jun-14 12:30N 40°43' W 074°02'0 0.2
2018-Jun-14 12:00N 40°43' W 074°02'0 0.1
2018-Jun-14 11:30N 40°43' W 074°02'0 0.0
2018-Jun-14 11:00N 40°43' W 074°02'0 0.0
2018-Jun-14 10:30N 40°43' W 074°02'0 0.1
2018-Jun-14 10:00N 40°43' W 074°02'1 0.2
2018-Jun-14 03:10N 40°44' W 074°02'1 8.1
2018-Jun-14 03:00N 40°43' W 074°01'0 0.8
2018-Jun-14 02:30N 40°43' W 074°02'1 1.0
2018-Jun-14 02:00N 40°43' W 074°01'1 1.1
2018-Jun-14 01:30N 40°43' W 074°02'0 0.9
2018-Jun-14 01:01N 40°43' W 074°01'0 0.9
2018-Jun-14 00:31N 40°43' W 074°02'1 1.1
2018-Jun-14 00:00N 40°43' W 074°01'0 0.2
2018-Jun-13 23:30N 40°43' W 074°01'0 0.2
2018-Jun-13 23:00N 40°43' W 074°01'0 0.0
2018-Jun-13 22:30N 40°43' W 074°01'0 0.0
2018-Jun-13 22:00N 40°43' W 074°01'0 0.2
2018-Jun-13 21:30N 40°43' W 074°01'0 0.1
2018-Jun-13 21:01N 40°43' W 074°01'0 0.1
2018-Jun-13 20:30N 40°43' W 074°01'0 0.0
2018-Jun-13 20:00N 40°43' W 074°01'0 0.1
2018-Jun-13 19:31N 40°43' W 074°01'0 0.0
2018-Jun-13 19:00N 40°43' W 074°01'0 0.0
2018-Jun-13 18:30N 40°43' W 074°01'0 0.1
2018-Jun-13 18:01N 40°43' W 074°01'0 0.0
2018-Jun-13 17:30N 40°43' W 074°01'0 0.0
2018-Jun-13 17:00N 40°43' W 074°01'0 0.0
2018-Jun-13 16:30N 40°43' W 074°01'0 0.0
2018-Jun-13 16:00N 40°43' W 074°01'0 0.0
2018-Jun-13 15:30N 40°43' W 074°01'0 0.0
2018-Jun-13 15:00N 40°43' W 074°01'0 0.0
2018-Jun-13 14:30N 40°43' W 074°01'0 0.0
2018-Jun-13 14:00N 40°43' W 074°01'0 0.0
2018-Jun-13 13:30N 40°43' W 074°01'0 0.0
2018-Jun-13 13:00N 40°43' W 074°01'0 0.0
2018-Jun-13 12:30N 40°43' W 074°01'0 0.0
2018-Jun-13 12:00N 40°43' W 074°01'0 0.0
2018-Jun-13 11:30N 40°43' W 074°01'0 0.0
2018-Jun-13 11:00N 40°43' W 074°01'0 0.0
2018-Jun-13 10:30N 40°43' W 074°01'1 2.6
2018-Jun-13 10:00N 40°44' W 074°02'0 0.0
2018-Jun-13 00:27N 40°44' W 074°02'2 4.8
2018-Jun-12 23:59N 40°46' W 074°01'4 7.5
2018-Jun-12 23:30N 40°43' W 074°02'0 0.3
2018-Jun-12 23:00N 40°43' W 074°02'0 0.0
2018-Jun-12 22:30N 40°43' W 074°02'0 0.1
2018-Jun-12 22:00N 40°43' W 074°02'0 0.1
2018-Jun-12 21:30N 40°43' W 074°02'0 0.1
2018-Jun-12 21:00N 40°43' W 074°02'0 0.1
2018-Jun-12 20:30N 40°43' W 074°02'0 0.1
2018-Jun-12 20:01N 40°43' W 074°02'0 0.1
2018-Jun-12 19:29N 40°43' W 074°02'0 0.0
2018-Jun-12 19:00N 40°43' W 074°02'0 0.0
2018-Jun-12 18:31N 40°43' W 074°02'0 0.1
2018-Jun-12 18:00N 40°43' W 074°02'0 0.1
2018-Jun-12 17:30N 40°43' W 074°02'0 0.2
2018-Jun-12 17:01N 40°43' W 074°02'0 0.2
2018-Jun-12 16:31N 40°43' W 074°02'0 0.1
2018-Jun-12 16:00N 40°43' W 074°02'0 0.2
2018-Jun-12 15:31N 40°43' W 074°02'0 0.1
2018-Jun-12 15:00N 40°43' W 074°02'0 0.1
2018-Jun-12 14:30N 40°43' W 074°02'0 0.0
2018-Jun-12 14:00N 40°43' W 074°02'0 0.0
2018-Jun-12 13:30N 40°43' W 074°02'0 0.0
2018-Jun-12 13:00N 40°43' W 074°02'0 0.1
2018-Jun-12 12:30N 40°43' W 074°02'0 0.0
2018-Jun-12 12:00N 40°43' W 074°02'0 0.1
2018-Jun-12 11:31N 40°43' W 074°02'0 0.1
2018-Jun-12 11:01N 40°43' W 074°02'0 0.0
2018-Jun-12 10:30N 40°43' W 074°02'0 0.1
2018-Jun-12 10:00N 40°43' W 074°02'1 0.2
2018-Jun-12 03:11N 40°44' W 074°02'1 7.2
2018-Jun-12 03:00N 40°43' W 074°01'0 0.8
2018-Jun-12 02:30N 40°43' W 074°02'1 0.9
2018-Jun-12 01:57N 40°43' W 074°01'1 1.4
2018-Jun-12 01:30N 40°43' W 074°02'1 1.1
2018-Jun-12 01:00N 40°43' W 074°01'0 1.0
2018-Jun-12 00:30N 40°43' W 074°02'1 1.1
2018-Jun-12 00:00N 40°43' W 074°01'0 0.0
2018-Jun-11 23:30N 40°43' W 074°01'0 0.0
2018-Jun-11 22:58N 40°43' W 074°01'0 0.1
2018-Jun-11 22:30N 40°43' W 074°01'0 0.0
2018-Jun-11 21:58N 40°43' W 074°01'0 0.0
2018-Jun-11 21:29N 40°43' W 074°01'0 0.0
2018-Jun-11 21:00N 40°43' W 074°01'0 0.0
2018-Jun-11 20:30N 40°43' W 074°01'0 0.0
2018-Jun-11 20:00N 40°43' W 074°01'0 0.0
2018-Jun-11 19:30N 40°43' W 074°01'0 0.0
2018-Jun-11 19:00N 40°43' W 074°01'0 0.0
2018-Jun-11 18:28N 40°43' W 074°01'0 0.0
2018-Jun-11 18:00N 40°43' W 074°01'0 0.0
2018-Jun-11 17:30N 40°43' W 074°01'0 0.0
2018-Jun-11 17:00N 40°43' W 074°01'0 0.0
2018-Jun-11 16:30N 40°43' W 074°01'0 0.1
2018-Jun-11 16:00N 40°43' W 074°01'0 0.1
2018-Jun-11 15:30N 40°43' W 074°01'0 0.0
2018-Jun-11 15:00N 40°43' W 074°01'0 0.0
2018-Jun-11 14:30N 40°43' W 074°01'0 0.0
2018-Jun-11 14:00N 40°43' W 074°01'0 0.0
2018-Jun-11 13:30N 40°43' W 074°01'0 0.0
2018-Jun-11 12:58N 40°43' W 074°01'0 0.0
2018-Jun-11 12:30N 40°43' W 074°01'0 0.0
2018-Jun-11 11:59N 40°43' W 074°01'0 0.0
2018-Jun-11 11:30N 40°43' W 074°01'0 0.0
2018-Jun-11 11:00N 40°43' W 074°01'0 0.0
2018-Jun-11 10:30N 40°43' W 074°01'1 2.6
2018-Jun-11 10:00N 40°44' W 074°02'0 0.0
2018-Jun-09 19:08N 40°44' W 074°02'0 0.0
2018-Jun-09 00:26N 40°44' W 074°02'2 3.6
2018-Jun-08 23:48N 40°46' W 074°01'4 9.8
2018-Jun-08 23:27N 40°43' W 074°02'0 0.1
2018-Jun-08 23:00N 40°43' W 074°02'0 0.2
2018-Jun-08 22:30N 40°43' W 074°02'0 0.2
2018-Jun-08 22:00N 40°43' W 074°02'0 0.1
2018-Jun-08 21:30N 40°43' W 074°02'0 0.1
2018-Jun-08 21:00N 40°43' W 074°02'0 0.0
2018-Jun-08 20:30N 40°43' W 074°02'0 0.1
2018-Jun-08 20:00N 40°43' W 074°02'0 0.1
2018-Jun-08 19:30N 40°43' W 074°02'0 0.1
2018-Jun-08 19:00N 40°43' W 074°02'0 0.1
2018-Jun-08 18:30N 40°43' W 074°02'0 0.0
2018-Jun-08 18:01N 40°43' W 074°02'0 0.1
2018-Jun-08 17:30N 40°43' W 074°02'0 0.1
2018-Jun-08 17:00N 40°43' W 074°02'0 0.1
2018-Jun-08 16:30N 40°43' W 074°02'0 0.0
2018-Jun-08 16:00N 40°43' W 074°02'0 0.0
2018-Jun-08 15:30N 40°43' W 074°02'0 0.2
2018-Jun-08 15:01N 40°43' W 074°02'0 0.1
2018-Jun-08 14:30N 40°43' W 074°02'0 0.0
2018-Jun-08 14:00N 40°43' W 074°02'0 0.0
2018-Jun-08 13:30N 40°43' W 074°02'0 0.2
2018-Jun-08 13:00N 40°43' W 074°02'0 0.2
2018-Jun-08 12:30N 40°43' W 074°02'0 0.1
2018-Jun-08 12:00N 40°43' W 074°02'0 0.2
2018-Jun-08 11:30N 40°43' W 074°02'0 0.2
2018-Jun-08 11:00N 40°43' W 074°02'0 0.1
2018-Jun-08 10:30N 40°43' W 074°02'0 0.2
2018-Jun-08 10:01N 40°43' W 074°02'1 0.2
2018-Jun-08 03:13N 40°44' W 074°02'1 6.1
2018-Jun-08 03:00N 40°43' W 074°01'1 1.1
2018-Jun-08 02:30N 40°43' W 074°02'1 1.2
2018-Jun-08 02:01N 40°43' W 074°01'1 1.3
2018-Jun-08 01:31N 40°43' W 074°02'1 1.2
2018-Jun-08 01:00N 40°43' W 074°01'1 1.1
2018-Jun-08 00:30N 40°43' W 074°02'1 1.1
2018-Jun-08 00:00N 40°43' W 074°01'0 0.1
2018-Jun-07 23:30N 40°43' W 074°01'0 0.0
2018-Jun-07 23:00N 40°43' W 074°01'0 0.1
2018-Jun-07 22:30N 40°43' W 074°01'0 0.0
2018-Jun-07 21:57N 40°43' W 074°01'0 0.1
2018-Jun-07 21:30N 40°43' W 074°01'0 0.0
2018-Jun-07 21:00N 40°43' W 074°01'0 0.0
2018-Jun-07 20:30N 40°43' W 074°01'0 0.0
2018-Jun-07 20:00N 40°43' W 074°01'0 0.0
2018-Jun-07 19:30N 40°43' W 074°01'0 0.0
2018-Jun-07 19:00N 40°43' W 074°01'0 0.1
2018-Jun-07 18:31N 40°43' W 074°01'0 0.0
2018-Jun-07 18:00N 40°43' W 074°01'0 0.0
2018-Jun-07 17:30N 40°43' W 074°01'0 0.0
2018-Jun-07 17:00N 40°43' W 074°01'0 0.0
2018-Jun-07 16:30N 40°43' W 074°01'0 0.0
2018-Jun-07 16:00N 40°43' W 074°01'0 0.0
2018-Jun-07 15:30N 40°43' W 074°01'0 0.0
2018-Jun-07 15:00N 40°43' W 074°01'0 0.0
2018-Jun-07 14:30N 40°43' W 074°01'0 0.0
2018-Jun-07 14:01N 40°43' W 074°01'0 0.0
2018-Jun-07 13:30N 40°43' W 074°01'0 0.0
2018-Jun-07 13:00N 40°43' W 074°01'0 0.0
2018-Jun-07 12:31N 40°43' W 074°01'0 0.0
2018-Jun-07 12:00N 40°43' W 074°01'0 0.0
2018-Jun-07 11:31N 40°43' W 074°01'0 0.0
2018-Jun-07 11:01N 40°43' W 074°01'0 0.0
2018-Jun-07 10:30N 40°43' W 074°01'1 2.6
2018-Jun-07 10:00N 40°44' W 074°02'0 0.0
2018-Jun-07 00:31N 40°44' W 074°02'0 8.0
2018-Jun-07 00:30N 40°44' W 074°01'1 0.9
2018-Jun-06 23:43N 40°45' W 074°01'2 9.6
2018-Jun-06 23:30N 40°43' W 074°02'0 0.0
2018-Jun-06 23:00N 40°43' W 074°02'0 0.0
2018-Jun-06 22:30N 40°43' W 074°02'0 0.0
2018-Jun-06 22:00N 40°43' W 074°02'0 0.0
2018-Jun-06 21:30N 40°43' W 074°02'0 0.1
2018-Jun-06 21:01N 40°43' W 074°02'0 0.1
2018-Jun-06 20:30N 40°43' W 074°02'0 0.1
2018-Jun-06 20:00N 40°43' W 074°02'0 0.1
2018-Jun-06 19:30N 40°43' W 074°02'0 0.1
2018-Jun-06 19:00N 40°43' W 074°02'0 0.1
2018-Jun-06 18:30N 40°43' W 074°02'0 0.0
2018-Jun-06 18:00N 40°43' W 074°02'0 0.1
2018-Jun-06 17:30N 40°43' W 074°02'0 0.0
2018-Jun-06 17:00N 40°43' W 074°02'0 0.0
2018-Jun-06 16:30N 40°43' W 074°02'0 0.1
2018-Jun-06 16:00N 40°43' W 074°02'0 0.1
2018-Jun-06 15:30N 40°43' W 074°02'0 0.3
2018-Jun-06 15:00N 40°43' W 074°02'0 0.2
2018-Jun-06 14:31N 40°43' W 074°02'0 0.1
2018-Jun-06 14:01N 40°43' W 074°02'0 0.1
2018-Jun-06 13:30N 40°43' W 074°02'0 0.1
2018-Jun-06 13:00N 40°43' W 074°02'0 0.0
2018-Jun-06 12:30N 40°43' W 074°02'0 0.0
2018-Jun-06 12:00N 40°43' W 074°02'0 0.1
2018-Jun-06 11:30N 40°43' W 074°02'0 0.3
2018-Jun-06 11:00N 40°43' W 074°02'0 0.3
2018-Jun-06 10:30N 40°43' W 074°02'0 0.1
2018-Jun-06 10:00N 40°43' W 074°02'1 0.2
2018-Jun-06 03:11N 40°44' W 074°02'1 7.2
2018-Jun-06 03:00N 40°43' W 074°01'1 1.1
2018-Jun-06 02:31N 40°43' W 074°02'1 1.0
2018-Jun-06 02:01N 40°43' W 074°01'1 1.2
2018-Jun-06 01:30N 40°43' W 074°02'1 1.3
2018-Jun-06 01:01N 40°43' W 074°01'1 1.3
2018-Jun-06 00:30N 40°43' W 074°02'  

Dump ship's entire track history